createdAt,value
2023-02-27T00:04:00.740Z,98647.16
2023-02-27T00:09:02.277Z,98648.28
2023-02-27T00:14:04.094Z,98645.94
2023-02-27T00:19:05.577Z,98653.16
2023-02-27T00:24:07.462Z,98646.59
2023-02-27T00:29:08.939Z,98650.50
2023-02-27T00:34:10.339Z,98651.41
2023-02-27T00:39:11.762Z,98645.75
2023-02-27T00:44:13.244Z,98648.84
2023-02-27T00:49:14.780Z,98650.22
2023-02-27T00:54:16.187Z,98661.13
2023-02-27T00:59:17.737Z,98651.50
2023-02-27T01:04:19.962Z,98657.81
2023-02-27T01:09:21.469Z,98653.72
2023-02-27T01:14:23.048Z,98644.41
2023-02-27T01:19:25.315Z,98653.28
2023-02-27T01:24:26.854Z,98645.72
2023-02-27T01:29:28.299Z,98646.16
2023-02-27T01:34:29.774Z,98642.84
2023-02-27T01:39:32.819Z,98649.84
2023-02-27T01:45:06.070Z,98643.88
2023-02-27T01:50:08.830Z,98649.13
2023-02-27T01:55:13.218Z,98647.50
2023-02-27T02:00:15.315Z,98652.31
2023-02-27T02:05:16.871Z,98647.44
2023-02-27T02:10:19.508Z,98650.88
2023-02-27T02:15:28.521Z,98656.28
2023-02-27T02:20:59.450Z,98656.06
2023-02-27T02:26:21.133Z,98666.25
2023-02-27T02:31:57.001Z,98654.78
2023-02-27T02:37:30.995Z,98668.88
2023-02-27T02:42:55.458Z,98665.75
2023-02-27T02:48:09.086Z,98669.97
2023-02-27T02:53:36.697Z,98668.53
2023-02-27T02:59:02.792Z,98673.75
2023-02-27T03:04:12.404Z,98678.25
2023-02-27T03:09:25.104Z,98686.94
2023-02-27T03:14:59.195Z,98684.38
2023-02-27T03:20:06.868Z,98690.78
2023-02-27T03:25:12.465Z,98692.72
2023-02-27T03:30:20.995Z,98690.41
2023-02-27T03:35:28.263Z,98689.88
2023-02-27T03:40:52.631Z,98689.69
2023-02-27T03:46:15.974Z,98696.97
2023-02-27T03:51:20.350Z,98696.31
2023-02-27T03:56:28.183Z,98692.75
2023-02-27T04:01:30.706Z,98710.06
2023-02-27T04:06:52.746Z,98704.81
2023-02-27T04:11:54.275Z,98708.28
2023-02-27T04:17:16.016Z,98701.38
2023-02-27T04:22:39.692Z,98710.72
2023-02-27T04:27:56.759Z,98716.63
2023-02-27T04:33:30.283Z,98719.06
2023-02-27T04:38:41.150Z,98722.41
2023-02-27T04:43:45.444Z,98725.56
2023-02-27T04:49:03.859Z,98727.06
2023-02-27T04:54:14.280Z,98720.75
2023-02-27T04:59:21.063Z,98724.97
2023-02-27T05:04:26.725Z,98725.81
2023-02-27T05:09:38.446Z,98734.94
2023-02-27T05:14:46.164Z,98738.31
2023-02-27T05:19:48.228Z,98733.06
2023-02-27T05:24:57.297Z,98751.84
2023-02-27T05:30:04.793Z,98755.78
2023-02-27T05:35:26.815Z,98760.00
2023-02-27T05:40:39.362Z,98760.25
2023-02-27T05:45:44.461Z,98762.16
2023-02-27T05:50:50.603Z,98782.19
2023-02-27T05:56:00.230Z,98786.84
2023-02-27T06:01:07.714Z,98780.69
2023-02-27T06:06:14.671Z,98783.97
2023-02-27T06:11:17.753Z,98798.84
2023-02-27T06:16:19.237Z,98798.03
2023-02-27T06:21:22.114Z,98806.63
2023-02-27T06:26:23.951Z,98810.66
2023-02-27T06:31:26.150Z,98814.31
2023-02-27T06:36:29.968Z,98825.91
2023-02-27T06:41:31.675Z,98832.00
2023-02-27T06:46:33.181Z,98828.25
2023-02-27T06:51:34.629Z,98829.63
2023-02-27T06:56:36.043Z,98828.16
2023-02-27T07:01:37.568Z,98824.69
2023-02-27T07:07:35.270Z,98825.88
2023-02-27T07:12:01.530Z,98826.66
2023-02-27T07:17:04.547Z,98820.09
2023-02-27T07:22:05.996Z,98821.41
2023-02-27T07:27:07.473Z,98820.31
2023-02-27T07:32:09.071Z,98825.22
2023-02-27T07:37:10.575Z,98821.25
2023-02-27T07:42:12.224Z,98826.66
2023-02-27T07:47:14.690Z,98823.31
2023-02-27T07:52:16.090Z,98826.84
2023-02-27T07:57:17.507Z,98828.38
2023-02-27T08:02:19.092Z,98833.25
2023-02-27T08:07:20.515Z,98838.50
2023-02-27T08:12:22.219Z,98840.31
2023-02-27T08:17:23.622Z,98852.91
2023-02-27T08:22:25.143Z,98857.34
2023-02-27T08:27:26.534Z,98868.22
2023-02-27T08:32:28.011Z,98864.63
2023-02-27T08:37:29.422Z,98866.50
2023-02-27T08:42:30.883Z,98875.09
2023-02-27T08:47:32.332Z,98877.53
2023-02-27T08:52:33.819Z,98887.41
2023-02-27T08:57:35.342Z,98879.84
2023-02-27T09:02:36.945Z,98885.03
2023-02-27T09:07:38.428Z,98895.63
2023-02-27T09:12:40.454Z,98895.16
2023-02-27T09:17:42.367Z,98899.00
2023-02-27T09:22:44.052Z,98897.84
2023-02-27T09:27:45.498Z,98901.28
2023-02-27T09:32:47.058Z,98901.00
2023-02-27T09:37:51.629Z,98903.69
2023-02-27T09:42:58.007Z,98901.84
2023-02-27T09:48:06.415Z,98909.13
2023-02-27T09:53:21.841Z,98907.34
2023-02-27T09:58:37.917Z,98903.34
2023-02-27T10:03:44.980Z,98900.81
2023-02-27T10:08:59.660Z,98913.25
2023-02-27T10:14:22.939Z,98913.25
2023-02-27T10:19:28.850Z,98905.63
2023-02-27T10:24:38.033Z,98916.13
2023-02-27T10:29:41.492Z,98921.19
2023-02-27T10:34:46.728Z,98916.84
2023-02-27T10:39:52.987Z,98928.59
2023-02-27T10:44:55.079Z,98934.94
2023-02-27T10:49:56.669Z,98929.91
2023-02-27T10:55:17.482Z,98929.91
2023-02-27T11:00:28.226Z,98923.59
2023-02-27T11:05:33.201Z,98923.19
2023-02-27T11:10:34.740Z,98913.69
2023-02-27T11:15:38.047Z,98909.88
2023-02-27T11:20:43.418Z,98914.00
2023-02-27T11:25:45.147Z,98910.63
2023-02-27T11:30:59.600Z,98909.25
2023-02-27T11:36:02.704Z,98908.72
2023-02-27T11:41:05.466Z,98910.63
2023-02-27T11:46:44.522Z,98909.88
2023-02-27T11:51:51.158Z,98903.03
2023-02-27T11:56:57.579Z,98899.56
2023-02-27T12:02:11.044Z,98894.63
2023-02-27T12:07:16.466Z,98892.63
2023-02-27T12:12:29.474Z,98885.41
2023-02-27T12:17:40.701Z,98887.94
2023-02-27T12:22:46.871Z,98881.47
2023-02-27T12:27:54.409Z,98872.72
2023-02-27T12:33:25.407Z,98886.34
2023-02-27T12:38:27.062Z,98880.34
2023-02-27T12:43:48.839Z,98889.63
2023-02-27T12:49:02.300Z,98887.41
2023-02-27T12:54:30.124Z,98892.94
2023-02-27T12:59:44.166Z,98884.66
2023-02-27T13:04:56.591Z,98888.81
2023-02-27T13:10:03.383Z,98889.97
2023-02-27T13:15:16.018Z,98882.88
2023-02-27T13:20:39.210Z,98879.94
2023-02-27T13:25:44.887Z,98885.34
2023-02-27T13:31:07.421Z,98881.84
2023-02-27T13:36:18.732Z,98882.81
2023-02-27T13:41:20.092Z,98889.38
2023-02-27T13:46:29.942Z,98880.03
2023-02-27T13:51:43.237Z,98877.59
2023-02-27T13:56:48.696Z,98877.66
2023-02-27T14:01:57.215Z,98881.66
2023-02-27T14:07:02.143Z,98877.56
2023-02-27T14:12:06.621Z,98887.94
2023-02-27T14:17:11.940Z,98886.34
2023-02-27T14:22:16.444Z,98881.78
2023-02-27T14:27:25.488Z,98883.34
2023-02-27T14:32:33.191Z,98878.59
2023-02-27T14:37:36.252Z,98880.25
2023-02-27T14:42:40.953Z,98883.28
2023-02-27T14:47:43.061Z,98891.97
2023-02-27T14:52:44.514Z,98902.38
2023-02-27T14:58:00.361Z,98901.31
2023-02-27T15:03:15.895Z,98901.69
2023-02-27T15:08:23.673Z,98907.47
2023-02-27T15:13:31.531Z,98908.13
2023-02-27T15:18:33.370Z,98910.72
2023-02-27T15:23:34.929Z,98920.72
2023-02-27T15:28:38.720Z,98909.88
2023-02-27T15:33:41.083Z,98917.50
2023-02-27T15:38:42.492Z,98924.09
2023-02-27T15:43:44.740Z,98926.66
2023-02-27T15:48:46.364Z,98933.50
2023-02-27T15:53:55.850Z,98936.56
2023-02-27T15:59:01.129Z,98943.19
2023-02-27T16:04:20.599Z,98953.50
2023-02-27T16:09:30.251Z,98968.31
2023-02-27T16:14:39.103Z,98974.09
2023-02-27T16:19:40.562Z,98970.09
2023-02-27T16:24:42.720Z,98965.97
2023-02-27T16:29:45.588Z,98963.75
2023-02-27T16:34:47.111Z,98967.50
2023-02-27T16:39:54.787Z,98976.34
2023-02-27T16:44:56.236Z,98980.78
2023-02-27T16:49:58.121Z,98985.41
2023-02-27T16:54:59.545Z,98988.31
2023-02-27T17:00:00.971Z,98992.41
2023-02-27T17:05:02.937Z,98988.25
2023-02-27T17:10:04.895Z,98991.28
2023-02-27T17:15:06.797Z,98998.06
2023-02-27T17:20:11.186Z,99000.31
2023-02-27T17:25:13.818Z,99008.59
2023-02-27T17:30:15.615Z,99010.50
2023-02-27T17:35:17.191Z,99017.38
2023-02-27T17:40:18.812Z,99012.75
2023-02-27T17:45:21.145Z,99018.56
2023-02-27T17:50:22.610Z,99018.28
2023-02-27T17:55:24.171Z,99015.53
2023-02-27T18:00:25.704Z,99027.47
2023-02-27T18:05:27.141Z,99031.59
2023-02-27T18:10:28.581Z,99024.47
2023-02-27T18:15:30.070Z,99028.88
2023-02-27T18:20:31.554Z,99025.28
2023-02-27T18:25:32.971Z,99030.38
2023-02-27T18:30:39.030Z,99029.53
2023-02-27T18:35:40.547Z,99037.53
2023-02-27T18:40:42.716Z,99030.47
2023-02-27T18:45:44.160Z,99029.63
2023-02-27T18:50:45.589Z,99027.00
2023-02-27T18:55:47.084Z,99030.66
2023-02-27T19:00:48.572Z,99032.66
2023-02-27T19:05:50.227Z,99033.88
2023-02-27T19:10:52.432Z,99035.94
2023-02-27T19:15:54.355Z,99039.91
2023-02-27T19:20:57.393Z,99044.06
2023-02-27T19:26:02.299Z,99045.44
2023-02-27T19:31:09.259Z,99048.63
2023-02-27T19:36:17.587Z,99037.06
2023-02-27T19:41:20.385Z,99041.50
2023-02-27T19:46:33.764Z,99043.28
2023-02-27T19:51:35.284Z,99044.31
2023-02-27T19:56:36.764Z,99049.88
2023-02-27T20:01:38.957Z,99046.66
2023-02-27T20:06:43.823Z,99053.72
2023-02-27T20:11:47.573Z,99060.75
2023-02-27T20:16:49.089Z,99058.31
2023-02-27T20:21:51.986Z,99063.09
2023-02-27T20:26:54.106Z,99064.78
2023-02-27T20:31:57.221Z,99065.56
2023-02-27T20:37:00.116Z,99060.94
2023-02-27T20:42:01.847Z,99057.19
2023-02-27T20:47:03.545Z,99065.72
2023-02-27T20:52:04.972Z,99063.75
2023-02-27T20:57:06.623Z,99063.56
2023-02-27T21:02:10.009Z,99058.13
2023-02-27T21:07:17.623Z,99059.72
2023-02-27T21:12:19.075Z,99061.50
2023-02-27T21:17:20.534Z,99066.00
2023-02-27T21:22:22.046Z,99057.28
2023-02-27T21:27:23.798Z,99065.09
2023-02-27T21:32:25.400Z,99068.44
2023-02-27T21:37:26.923Z,99072.03
2023-02-27T21:42:28.394Z,99071.28
2023-02-27T21:47:29.947Z,99068.56
2023-02-27T21:52:31.467Z,99065.63
2023-02-27T21:57:32.911Z,99068.38
2023-02-27T22:02:34.647Z,99064.97
2023-02-27T22:07:37.299Z,99062.47
2023-02-27T22:12:38.842Z,99062.53
2023-02-27T22:17:40.430Z,99080.19
2023-02-27T22:22:41.849Z,99078.44
2023-02-27T22:27:43.318Z,99079.34
2023-02-27T22:32:44.746Z,99076.63
2023-02-27T22:37:46.157Z,99077.28
2023-02-27T22:42:50.702Z,99072.69
2023-02-27T22:47:52.162Z,99065.75
2023-02-27T22:52:53.566Z,99071.84
2023-02-27T22:57:56.999Z,99071.00
2023-02-27T23:02:58.394Z,99074.38
2023-02-27T23:07:59.972Z,99075.88
2023-02-27T23:13:01.378Z,99080.13
2023-02-27T23:18:02.805Z,99074.88
2023-02-27T23:23:05.806Z,99070.63
2023-02-27T23:28:07.803Z,99073.25
2023-02-27T23:33:09.222Z,99085.28
2023-02-27T23:38:10.649Z,99087.06
2023-02-27T23:43:30.848Z,99097.59
2023-02-27T23:48:32.318Z,99091.31
2023-02-27T23:53:35.338Z,99089.59
2023-02-27T23:58:36.769Z,99092.41
